sensor_id;sensor_type;location;lat;lon;timestamp;pressure;altitude;pressure_sealevel;temperature;humidity
22257;BME280;11297;42.686;23.374;2023-01-31T00:02:00;94540.88;;;4.60;52.31
22257;BME280;11297;42.686;23.374;2023-01-31T00:04:25;94538.94;;;4.71;52.87
22257;BME280;11297;42.686;23.374;2023-01-31T00:06:50;94554.56;;;4.79;53.05
22257;BME280;11297;42.686;23.374;2023-01-31T00:09:18;94533.22;;;4.55;52.61
22257;BME280;11297;42.686;23.374;2023-01-31T00:11:43;94548.53;;;4.65;53.39
22257;BME280;11297;42.686;23.374;2023-01-31T00:14:08;94547.28;;;4.63;53.64
22257;BME280;11297;42.686;23.374;2023-01-31T00:16:37;94545.03;;;4.56;53.95
22257;BME280;11297;42.686;23.374;2023-01-31T00:19:03;94545.88;;;4.52;54.25
22257;BME280;11297;42.686;23.374;2023-01-31T00:21:29;94527.59;;;4.53;54.54
22257;BME280;11297;42.686;23.374;2023-01-31T00:23:56;94520.34;;;4.55;54.11
22257;BME280;11297;42.686;23.374;2023-01-31T00:26:30;94523.03;;;4.69;54.22
22257;BME280;11297;42.686;23.374;2023-01-31T00:28:57;94527.63;;;4.72;54.03
22257;BME280;11297;42.686;23.374;2023-01-31T00:31:24;94523.09;;;4.64;53.68
22257;BME280;11297;42.686;23.374;2023-01-31T00:33:51;94521.72;;;4.48;54.21
22257;BME280;11297;42.686;23.374;2023-01-31T00:36:21;94524.66;;;4.36;54.34
22257;BME280;11297;42.686;23.374;2023-01-31T00:38:47;94543.84;;;4.21;54.58
22257;BME280;11297;42.686;23.374;2023-01-31T00:41:13;94528.59;;;4.01;55.44
22257;BME280;11297;42.686;23.374;2023-01-31T00:43:39;94513.56;;;3.89;55.55
22257;BME280;11297;42.686;23.374;2023-01-31T00:46:05;94532.34;;;3.85;56.25
22257;BME280;11297;42.686;23.374;2023-01-31T00:48:30;94526.63;;;3.93;56.28
22257;BME280;11297;42.686;23.374;2023-01-31T00:50:56;94524.06;;;3.93;56.30
22257;BME280;11297;42.686;23.374;2023-01-31T00:53:22;94529.66;;;4.00;56.49
22257;BME280;11297;42.686;23.374;2023-01-31T00:55:52;94510.63;;;4.01;56.48
22257;BME280;11297;42.686;23.374;2023-01-31T00:58:18;94526.44;;;4.13;56.12
22257;BME280;11297;42.686;23.374;2023-01-31T01:00:44;94521.09;;;4.09;55.92
22257;BME280;11297;42.686;23.374;2023-01-31T01:03:09;94510.31;;;4.07;56.01
22257;BME280;11297;42.686;23.374;2023-01-31T01:05:34;94527.22;;;4.13;55.88
22257;BME280;11297;42.686;23.374;2023-01-31T01:08:00;94515.34;;;3.89;55.85
22257;BME280;11297;42.686;23.374;2023-01-31T01:10:25;94534.94;;;4.08;55.67
22257;BME280;11297;42.686;23.374;2023-01-31T01:12:51;94539.53;;;4.16;55.92
22257;BME280;11297;42.686;23.374;2023-01-31T01:15:16;94545.56;;;4.30;55.27
22257;BME280;11297;42.686;23.374;2023-01-31T01:17:41;94537.91;;;4.25;54.89
22257;BME280;11297;42.686;23.374;2023-01-31T01:20:08;94532.38;;;4.13;54.77
22257;BME280;11297;42.686;23.374;2023-01-31T01:22:33;94527.09;;;3.95;55.47
22257;BME280;11297;42.686;23.374;2023-01-31T01:24:59;94522.97;;;3.99;55.35
22257;BME280;11297;42.686;23.374;2023-01-31T01:27:24;94526.00;;;4.06;55.49
22257;BME280;11297;42.686;23.374;2023-01-31T01:29:52;94516.75;;;4.05;54.88
22257;BME280;11297;42.686;23.374;2023-01-31T01:32:17;94521.34;;;4.08;54.76
22257;BME280;11297;42.686;23.374;2023-01-31T01:34:43;94509.56;;;3.74;55.47
22257;BME280;11297;42.686;23.374;2023-01-31T01:37:08;94514.25;;;3.95;55.16
22257;BME280;11297;42.686;23.374;2023-01-31T01:39:38;94514.78;;;3.97;54.23
22257;BME280;11297;42.686;23.374;2023-01-31T01:42:04;94502.41;;;3.99;54.46
22257;BME280;11297;42.686;23.374;2023-01-31T01:47:36;94499.72;;;3.85;54.58
22257;BME280;11297;42.686;23.374;2023-01-31T01:55:45;94517.50;;;3.77;53.63
22257;BME280;11297;42.686;23.374;2023-01-31T01:58:22;94503.44;;;3.70;53.87
22257;BME280;11297;42.686;23.374;2023-01-31T02:00:49;94511.56;;;3.81;53.17
22257;BME280;11297;42.686;23.374;2023-01-31T02:03:15;94495.47;;;3.71;52.95
22257;BME280;11297;42.686;23.374;2023-01-31T02:05:47;94511.34;;;3.78;52.81
22257;BME280;11297;42.686;23.374;2023-01-31T02:08:16;94503.16;;;3.76;52.32
22257;BME280;11297;42.686;23.374;2023-01-31T02:10:54;94509.56;;;3.40;52.65
22257;BME280;11297;42.686;23.374;2023-01-31T02:13:20;94524.72;;;3.42;52.50
22257;BME280;11297;42.686;23.374;2023-01-31T02:15:46;94501.66;;;3.32;52.28
22257;BME280;11297;42.686;23.374;2023-01-31T02:18:12;94514.41;;;3.47;52.53
22257;BME280;11297;42.686;23.374;2023-01-31T02:21:03;94519.53;;;3.47;52.53
22257;BME280;11297;42.686;23.374;2023-01-31T02:37:02;94523.03;;;3.18;52.16
22257;BME280;11297;42.686;23.374;2023-01-31T02:39:40;94520.84;;;2.96;53.12
22257;BME280;11297;42.686;23.374;2023-01-31T02:42:25;94509.31;;;2.94;52.64
22257;BME280;11297;42.686;23.374;2023-01-31T02:45:15;94527.22;;;3.04;52.47
22257;BME280;11297;42.686;23.374;2023-01-31T02:53:32;94531.22;;;3.25;52.89
22257;BME280;11297;42.686;23.374;2023-01-31T02:56:12;94517.19;;;3.12;52.98
22257;BME280;11297;42.686;23.374;2023-01-31T02:58:57;94544.63;;;3.12;53.00
22257;BME280;11297;42.686;23.374;2023-01-31T03:01:30;94549.72;;;3.22;53.36
22257;BME280;11297;42.686;23.374;2023-01-31T03:04:08;94555.78;;;3.35;53.38
22257;BME280;11297;42.686;23.374;2023-01-31T03:09:18;94570.91;;;3.37;53.74
22257;BME280;11297;42.686;23.374;2023-01-31T03:14:41;94590.69;;;3.36;53.47
22257;BME280;11297;42.686;23.374;2023-01-31T03:20:07;94594.88;;;3.23;53.75
22257;BME280;11297;42.686;23.374;2023-01-31T03:22:40;94596.41;;;3.19;54.23
22257;BME280;11297;42.686;23.374;2023-01-31T03:25:09;94596.44;;;3.14;54.49
22257;BME280;11297;42.686;23.374;2023-01-31T03:27:37;94597.44;;;3.18;54.61
22257;BME280;11297;42.686;23.374;2023-01-31T03:30:09;94592.81;;;3.15;54.72
22257;BME280;11297;42.686;23.374;2023-01-31T03:32:48;94600.50;;;3.25;54.68
22257;BME280;11297;42.686;23.374;2023-01-31T03:35:15;94612.78;;;3.28;54.68
22257;BME280;11297;42.686;23.374;2023-01-31T03:37:49;94598.94;;;3.24;54.99
22257;BME280;11297;42.686;23.374;2023-01-31T03:40:25;94606.13;;;3.32;55.17
22257;BME280;11297;42.686;23.374;2023-01-31T03:43:23;94615.34;;;3.28;55.16
22257;BME280;11297;42.686;23.374;2023-01-31T03:45:58;94622.09;;;3.14;55.22
22257;BME280;11297;42.686;23.374;2023-01-31T03:48:30;94633.41;;;3.03;56.12
22257;BME280;11297;42.686;23.374;2023-01-31T03:51:06;94623.22;;;2.73;57.37
22257;BME280;11297;42.686;23.374;2023-01-31T03:54:06;94627.06;;;2.81;58.23
22257;BME280;11297;42.686;23.374;2023-01-31T03:56:32;94618.88;;;2.69;58.92
22257;BME280;11297;42.686;23.374;2023-01-31T03:59:02;94628.66;;;2.62;60.23
22257;BME280;11297;42.686;23.374;2023-01-31T04:01:31;94632.75;;;2.63;60.41
22257;BME280;11297;42.686;23.374;2023-01-31T04:04:30;94619.41;;;2.66;60.42
22257;BME280;11297;42.686;23.374;2023-01-31T04:06:59;94624.03;;;2.74;60.54
22257;BME280;11297;42.686;23.374;2023-01-31T04:09:25;94622.19;;;2.79;60.85
22257;BME280;11297;42.686;23.374;2023-01-31T04:11:51;94618.38;;;2.72;60.18
22257;BME280;11297;42.686;23.374;2023-01-31T04:14:16;94617.88;;;2.70;60.46
22257;BME280;11297;42.686;23.374;2023-01-31T04:16:42;94618.38;;;2.72;61.08
22257;BME280;11297;42.686;23.374;2023-01-31T04:19:07;94619.16;;;2.72;61.48
22257;BME280;11297;42.686;23.374;2023-01-31T04:21:33;94625.78;;;2.73;61.27
22257;BME280;11297;42.686;23.374;2023-01-31T04:23:59;94620.16;;;2.81;61.31
22257;BME280;11297;42.686;23.374;2023-01-31T04:26:24;94607.13;;;2.68;61.83
22257;BME280;11297;42.686;23.374;2023-01-31T04:28:50;94618.38;;;2.77;62.12
22257;BME280;11297;42.686;23.374;2023-01-31T04:31:15;94618.63;;;2.70;62.08
22257;BME280;11297;42.686;23.374;2023-01-31T04:33:41;94629.94;;;2.69;62.80
22257;BME280;11297;42.686;23.374;2023-01-31T04:36:07;94638.88;;;2.72;62.92
22257;BME280;11297;42.686;23.374;2023-01-31T04:38:33;94641.69;;;2.70;63.02
22257;BME280;11297;42.686;23.374;2023-01-31T04:40:58;94631.72;;;2.74;62.78
22257;BME280;11297;42.686;23.374;2023-01-31T04:43:23;94657.06;;;3.53;74.04
22257;BME280;11297;42.686;23.374;2023-01-31T04:45:49;94663.19;;;2.99;66.68
22257;BME280;11297;42.686;23.374;2023-01-31T04:48:14;94664.75;;;2.85;65.10
22257;BME280;11297;42.686;23.374;2023-01-31T04:50:40;94660.13;;;2.82;64.66
22257;BME280;11297;42.686;23.374;2023-01-31T04:53:05;94671.44;;;2.81;64.98
22257;BME280;11297;42.686;23.374;2023-01-31T04:55:33;94656.56;;;2.78;64.94
22257;BME280;11297;42.686;23.374;2023-01-31T04:57:58;94663.50;;;2.68;65.15
22257;BME280;11297;42.686;23.374;2023-01-31T05:00:24;94660.44;;;2.71;65.03
22257;BME280;11297;42.686;23.374;2023-01-31T05:02:49;94660.16;;;2.67;65.66
22257;BME280;11297;42.686;23.374;2023-01-31T05:05:15;94655.56;;;2.59;66.09
22257;BME280;11297;42.686;23.374;2023-01-31T05:07:43;94644.28;;;2.65;66.33
22257;BME280;11297;42.686;23.374;2023-01-31T05:10:09;94656.31;;;2.70;66.60
22257;BME280;11297;42.686;23.374;2023-01-31T05:12:35;94649.66;;;2.64;66.65
22257;BME280;11297;42.686;23.374;2023-01-31T05:15:00;94647.88;;;2.59;66.83
22257;BME280;11297;42.686;23.374;2023-01-31T05:17:26;94655.06;;;2.57;67.34
22257;BME280;11297;42.686;23.374;2023-01-31T05:19:54;94661.47;;;2.65;67.37
22257;BME280;11297;42.686;23.374;2023-01-31T05:22:20;94671.44;;;2.61;67.38
22257;BME280;11297;42.686;23.374;2023-01-31T05:24:47;94666.81;;;2.73;66.88
22257;BME280;11297;42.686;23.374;2023-01-31T05:27:12;94680.41;;;2.69;66.65
22257;BME280;11297;42.686;23.374;2023-01-31T05:29:37;94666.31;;;2.61;66.22
22257;BME280;11297;42.686;23.374;2023-01-31T05:32:03;94667.59;;;2.74;66.60
22257;BME280;11297;42.686;23.374;2023-01-31T05:34:28;94673.50;;;2.69;66.73
22257;BME280;11297;42.686;23.374;2023-01-31T05:36:57;94672.22;;;2.77;66.65
22257;BME280;11297;42.686;23.374;2023-01-31T05:39:22;94688.59;;;2.81;68.40
22257;BME280;11297;42.686;23.374;2023-01-31T05:41:47;94683.19;;;2.97;67.89
22257;BME280;11297;42.686;23.374;2023-01-31T05:44:13;94676.25;;;3.02;66.84
22257;BME280;11297;42.686;23.374;2023-01-31T05:46:40;94673.22;;;3.58;72.67
22257;BME280;11297;42.686;23.374;2023-01-31T05:49:06;94669.75;;;3.25;67.43
22257;BME280;11297;42.686;23.374;2023-01-31T05:51:31;94665.44;;;3.15;66.72
22257;BME280;11297;42.686;23.374;2023-01-31T05:53:57;94666.72;;;3.13;65.92
22257;BME280;11297;42.686;23.374;2023-01-31T05:56:23;94674.97;;;2.95;65.97
22257;BME280;11297;42.686;23.374;2023-01-31T05:58:49;94679.31;;;3.04;65.89
22257;BME280;11297;42.686;23.374;2023-01-31T06:01:23;94681.13;;;2.99;65.90
22257;BME280;11297;42.686;23.374;2023-01-31T06:03:49;94677.03;;;2.93;65.73
22257;BME280;11297;42.686;23.374;2023-01-31T06:06:15;94676.78;;;2.99;66.12
22257;BME280;11297;42.686;23.374;2023-01-31T06:08:40;94686.25;;;3.04;66.10
22257;BME280;11297;42.686;23.374;2023-01-31T06:11:10;94686.75;;;3.01;65.67
22257;BME280;11297;42.686;23.374;2023-01-31T06:13:37;94693.91;;;3.09;65.86
22257;BME280;11297;42.686;23.374;2023-01-31T06:16:03;94693.66;;;3.10;65.59
22257;BME280;11297;42.686;23.374;2023-01-31T06:18:28;94699.06;;;3.04;65.84
22257;BME280;11297;42.686;23.374;2023-01-31T06:20:53;94700.59;;;3.10;65.67
22257;BME280;11297;42.686;23.374;2023-01-31T06:23:19;94708.06;;;3.06;65.71
22257;BME280;11297;42.686;23.374;2023-01-31T06:25:48;94719.56;;;3.14;65.87
22257;BME280;11297;42.686;23.374;2023-01-31T06:28:14;94695.50;;;3.05;66.07
22257;BME280;11297;42.686;23.374;2023-01-31T06:30:39;94694.19;;;3.07;65.73
22257;BME280;11297;42.686;23.374;2023-01-31T06:33:05;94706.72;;;3.29;66.12
22257;BME280;11297;42.686;23.374;2023-01-31T06:35:30;94710.78;;;3.34;66.39
22257;BME280;11297;42.686;23.374;2023-01-31T06:37:57;94717.41;;;3.50;65.85
22257;BME280;11297;42.686;23.374;2023-01-31T06:40:23;94687.66;;;3.44;66.11
22257;BME280;11297;42.686;23.374;2023-01-31T06:42:48;94715.56;;;3.66;64.92
22257;BME280;11297;42.686;23.374;2023-01-31T06:45:14;94719.91;;;3.70;65.00
22257;BME280;11297;42.686;23.374;2023-01-31T06:47:40;94720.38;;;3.77;65.29
22257;BME280;11297;42.686;23.374;2023-01-31T06:50:05;94715.22;;;3.77;64.91
22257;BME280;11297;42.686;23.374;2023-01-31T06:52:31;94711.94;;;3.67;64.83
22257;BME280;11297;42.686;23.374;2023-01-31T06:54:56;94710.16;;;3.67;65.18
22257;BME280;11297;42.686;23.374;2023-01-31T06:57:22;94738.88;;;3.74;64.95
22257;BME280;11297;42.686;23.374;2023-01-31T06:59:47;94724.72;;;3.81;64.83
22257;BME280;11297;42.686;23.374;2023-01-31T07:02:12;94736.81;;;3.71;64.79
22257;BME280;11297;42.686;23.374;2023-01-31T07:04:38;94717.84;;;3.62;65.32
22257;BME280;11297;42.686;23.374;2023-01-31T07:07:03;94720.88;;;3.74;65.45
22257;BME280;11297;42.686;23.374;2023-01-31T07:09:29;94723.22;;;3.71;65.07
22257;BME280;11297;42.686;23.374;2023-01-31T07:11:54;94728.59;;;3.74;64.73
22257;BME280;11297;42.686;23.374;2023-01-31T07:14:19;94735.50;;;3.83;64.89
22257;BME280;11297;42.686;23.374;2023-01-31T07:16:45;94726.22;;;3.87;64.48
22257;BME280;11297;42.686;23.374;2023-01-31T07:19:10;94731.09;;;3.89;64.46
22257;BME280;11297;42.686;23.374;2023-01-31T07:21:35;94737.75;;;4.00;64.29
22257;BME280;11297;42.686;23.374;2023-01-31T07:24:02;94746.00;;;3.87;63.72
22257;BME280;11297;42.686;23.374;2023-01-31T07:26:28;94727.28;;;3.81;63.73
22257;BME280;11297;42.686;23.374;2023-01-31T07:28:53;94728.53;;;3.89;63.93
22257;BME280;11297;42.686;23.374;2023-01-31T07:31:18;94742.91;;;3.90;63.94
22257;BME280;11297;42.686;23.374;2023-01-31T07:33:45;94725.44;;;3.92;63.83
22257;BME280;11297;42.686;23.374;2023-01-31T07:36:12;94735.22;;;3.90;64.12
22257;BME280;11297;42.686;23.374;2023-01-31T07:38:38;94739.81;;;3.93;63.93
22257;BME280;11297;42.686;23.374;2023-01-31T07:41:04;94735.97;;;3.90;64.17
22257;BME280;11297;42.686;23.374;2023-01-31T07:43:30;94741.31;;;3.99;64.14
22257;BME280;11297;42.686;23.374;2023-01-31T07:45:56;94744.38;;;4.01;64.17
22257;BME280;11297;42.686;23.374;2023-01-31T07:48:22;94740.31;;;4.00;64.29
22257;BME280;11297;42.686;23.374;2023-01-31T07:51:06;94746.00;;;3.87;64.41
22257;BME280;11297;42.686;23.374;2023-01-31T07:53:34;94752.88;;;4.01;64.62
22257;BME280;11297;42.686;23.374;2023-01-31T07:56:11;94744.94;;;3.93;64.58
22257;BME280;11297;42.686;23.374;2023-01-31T07:58:38;94741.06;;;4.00;65.16
22257;BME280;11297;42.686;23.374;2023-01-31T08:01:04;94747.75;;;4.01;64.58
22257;BME280;11297;42.686;23.374;2023-01-31T08:03:48;94746.91;;;4.11;64.42
22257;BME280;11297;42.686;23.374;2023-01-31T08:06:13;94734.34;;;4.09;64.77
22257;BME280;11297;42.686;23.374;2023-01-31T08:08:40;94745.19;;;4.01;64.99
22257;BME280;11297;42.686;23.374;2023-01-31T08:11:06;94730.25;;;4.03;64.73
22257;BME280;11297;42.686;23.374;2023-01-31T08:13:33;94736.59;;;4.16;65.24
22257;BME280;11297;42.686;23.374;2023-01-31T08:16:00;94736.59;;;4.16;64.93
22257;BME280;11297;42.686;23.374;2023-01-31T08:18:25;94716.56;;;4.18;64.79
22257;BME280;11297;42.686;23.374;2023-01-31T08:20:51;94726.31;;;4.21;65.48
22257;BME280;11297;42.686;23.374;2023-01-31T08:23:16;94726.81;;;4.23;65.32
22257;BME280;11297;42.686;23.374;2023-01-31T08:25:42;94726.00;;;4.27;65.28
22257;BME280;11297;42.686;23.374;2023-01-31T08:28:07;94729.81;;;4.34;65.22
22257;BME280;11297;42.686;23.374;2023-01-31T08:30:33;94712.94;;;4.24;64.86
22257;BME280;11297;42.686;23.374;2023-01-31T08:32:59;94732.69;;;4.61;64.44
22257;BME280;11297;42.686;23.374;2023-01-31T08:35:25;94734.81;;;4.54;64.07
22257;BME280;11297;42.686;23.374;2023-01-31T08:37:51;94727.72;;;4.74;64.10
22257;BME280;11297;42.686;23.374;2023-01-31T08:40:17;94727.25;;;4.96;63.10
22257;BME280;11297;42.686;23.374;2023-01-31T08:42:42;94726.44;;;5.00;62.43
22257;BME280;11297;42.686;23.374;2023-01-31T08:45:08;94729.66;;;4.87;62.01
22257;BME280;11297;42.686;23.374;2023-01-31T08:47:34;94709.50;;;4.71;62.84
22257;BME280;11297;42.686;23.374;2023-01-31T08:50:00;94705.38;;;4.70;62.51
22257;BME280;11297;42.686;23.374;2023-01-31T08:52:26;94724.31;;;4.79;62.42
22257;BME280;11297;42.686;23.374;2023-01-31T08:54:52;94736.34;;;4.55;62.86
22257;BME280;11297;42.686;23.374;2023-01-31T08:57:17;94730.19;;;4.56;63.85
22257;BME280;11297;42.686;23.374;2023-01-31T08:59:45;94715.31;;;4.48;64.05
22257;BME280;11297;42.686;23.374;2023-01-31T09:02:10;94738.22;;;4.45;63.61
22257;BME280;11297;42.686;23.374;2023-01-31T09:04:36;94728.09;;;4.58;63.80
22257;BME280;11297;42.686;23.374;2023-01-31T09:07:01;94734.94;;;5.01;62.37
22257;BME280;11297;42.686;23.374;2023-01-31T09:09:29;94733.28;;;5.38;61.36
22257;BME280;11297;42.686;23.374;2023-01-31T09:11:54;94725.44;;;5.48;60.81
22257;BME280;11297;42.686;23.374;2023-01-31T09:14:20;94733.53;;;5.36;60.15
22257;BME280;11297;42.686;23.374;2023-01-31T09:16:45;94733.28;;;5.38;60.63
22257;BME280;11297;42.686;23.374;2023-01-31T09:19:11;94730.69;;;5.15;60.59
22257;BME280;11297;42.686;23.374;2023-01-31T09:21:37;94724.41;;;5.25;61.05
22257;BME280;11297;42.686;23.374;2023-01-31T09:24:02;94699.88;;;5.56;59.66
22257;BME280;11297;42.686;23.374;2023-01-31T09:26:28;94711.38;;;6.05;57.79
22257;BME280;11297;42.686;23.374;2023-01-31T09:28:54;94728.78;;;6.31;57.42
22257;BME280;11297;42.686;23.374;2023-01-31T09:31:20;94718.06;;;6.43;56.99
22257;BME280;11297;42.686;23.374;2023-01-31T09:33:46;94707.41;;;6.31;55.92
22257;BME280;11297;42.686;23.374;2023-01-31T09:36:17;94686.44;;;6.19;56.35
22257;BME280;11297;42.686;23.374;2023-01-31T09:38:43;94703.78;;;7.27;71.85
22257;BME280;11297;42.686;23.374;2023-01-31T09:41:38;94700.47;;;8.94;73.03
22257;BME280;11297;42.686;23.374;2023-01-31T09:44:26;94695.13;;;9.98;64.01
22257;BME280;11297;42.686;23.374;2023-01-31T09:49:28;94697.78;;;10.73;51.53
22257;BME280;11297;42.686;23.374;2023-01-31T09:51:58;94693.00;;;10.16;48.22
22257;BME280;11297;42.686;23.374;2023-01-31T09:54:31;94689.69;;;9.69;51.59
22257;BME280;11297;42.686;23.374;2023-01-31T09:57:06;94686.63;;;9.28;51.27
22257;BME280;11297;42.686;23.374;2023-01-31T10:00:12;94684.84;;;8.77;50.81
22257;BME280;11297;42.686;23.374;2023-01-31T10:11:00;94698.13;;;7.65;62.81
22257;BME280;11297;42.686;23.374;2023-01-31T10:13:33;94689.50;;;7.43;61.75
22257;BME280;11297;42.686;23.374;2023-01-31T10:18:43;94670.19;;;7.40;55.11
22257;BME280;11297;42.686;23.374;2023-01-31T10:21:17;94683.59;;;7.42;53.66
22257;BME280;11297;42.686;23.374;2023-01-31T10:26:27;94689.53;;;6.53;54.83
22257;BME280;11297;42.686;23.374;2023-01-31T10:29:16;94687.19;;;6.38;55.34
22257;BME280;11297;42.686;23.374;2023-01-31T10:31:59;94681.34;;;6.32;55.17
22257;BME280;11297;42.686;23.374;2023-01-31T10:34:36;94666.34;;;6.34;55.31
22257;BME280;11297;42.686;23.374;2023-01-31T10:40:18;94661.97;;;6.17;56.30
22257;BME280;11297;42.686;23.374;2023-01-31T10:42:50;94670.25;;;6.14;56.32
22257;BME280;11297;42.686;23.374;2023-01-31T10:47:52;94673.47;;;6.24;56.82
22257;BME280;11297;42.686;23.374;2023-01-31T10:53:13;94672.94;;;8.76;77.38
22257;BME280;11297;42.686;23.374;2023-01-31T10:58:14;94673.03;;;9.61;55.83
22257;BME280;11297;42.686;23.374;2023-01-31T11:00:41;94672.78;;;9.03;49.19
22257;BME280;11297;42.686;23.374;2023-01-31T11:03:10;94672.94;;;8.54;50.12
22257;BME280;11297;42.686;23.374;2023-01-31T11:05:44;94682.00;;;7.95;51.11
22257;BME280;11297;42.686;23.374;2023-01-31T11:08:40;94678.59;;;7.46;52.15
22257;BME280;11297;42.686;23.374;2023-01-31T11:11:19;94671.88;;;6.91;54.26
22257;BME280;11297;42.686;23.374;2023-01-31T11:13:56;94673.22;;;6.39;55.38
22257;BME280;11297;42.686;23.374;2023-01-31T11:16:22;94668.69;;;5.99;56.16
22257;BME280;11297;42.686;23.374;2023-01-31T11:18:49;94682.81;;;5.83;57.71
22257;BME280;11297;42.686;23.374;2023-01-31T11:21:21;94678.13;;;5.85;58.00
22257;BME280;11297;42.686;23.374;2023-01-31T11:23:49;94669.81;;;5.70;58.47
22257;BME280;11297;42.686;23.374;2023-01-31T11:26:50;94695.41;;;5.62;58.85
22257;BME280;11297;42.686;23.374;2023-01-31T11:29:23;94678.50;;;5.32;59.78
22257;BME280;11297;42.686;23.374;2023-01-31T11:31:52;94681.44;;;5.21;60.46
22257;BME280;11297;42.686;23.374;2023-01-31T11:34:26;94683.31;;;5.16;61.17
22257;BME280;11297;42.686;23.374;2023-01-31T11:36:51;94660.63;;;4.94;61.62
22257;BME280;11297;42.686;23.374;2023-01-31T11:39:25;94682.00;;;5.18;61.58
22257;BME280;11297;42.686;23.374;2023-01-31T11:41:51;94669.47;;;5.12;62.21
22257;BME280;11297;42.686;23.374;2023-01-31T11:44:18;94671.75;;;4.90;62.64
22257;BME280;11297;42.686;23.374;2023-01-31T11:49:12;94673.91;;;4.78;63.82
22257;BME280;11297;42.686;23.374;2023-01-31T11:51:38;94673.91;;;4.78;64.02
22257;BME280;11297;42.686;23.374;2023-01-31T11:54:05;94661.16;;;4.68;64.66
22257;BME280;11297;42.686;23.374;2023-01-31T11:56:34;94660.22;;;4.54;64.82
22257;BME280;11297;42.686;23.374;2023-01-31T11:59:02;94634.22;;;4.32;65.64
22257;BME280;11297;42.686;23.374;2023-01-31T12:01:31;94680.47;;;4.66;65.99
22257;BME280;11297;42.686;23.374;2023-01-31T12:04:00;94673.41;;;4.76;65.70
22257;BME280;11297;42.686;23.374;2023-01-31T12:06:38;94673.47;;;4.71;66.08
22257;BME280;11297;42.686;23.374;2023-01-31T12:09:18;94676.13;;;4.61;66.72
22257;BME280;11297;42.686;23.374;2023-01-31T12:11:55;94669.56;;;4.73;66.48
22257;BME280;11297;42.686;23.374;2023-01-31T12:14:22;94676.81;;;4.72;65.93
22257;BME280;11297;42.686;23.374;2023-01-31T12:16:52;94664.56;;;4.59;66.60
22257;BME280;11297;42.686;23.374;2023-01-31T12:25:20;94661.06;;;4.78;65.85
22257;BME280;11297;42.686;23.374;2023-01-31T12:41:47;94680.47;;;4.94;63.37
22257;BME280;11297;42.686;23.374;2023-01-31T12:44:31;94683.13;;;4.84;62.93
22257;BME280;11297;42.686;23.374;2023-01-31T12:56:39;94683.69;;;4.48;65.23
22257;BME280;11297;42.686;23.374;2023-01-31T13:04:45;94695.38;;;4.30;67.30
22257;BME280;11297;42.686;23.374;2023-01-31T13:07:25;94686.66;;;4.31;67.66
22257;BME280;11297;42.686;23.374;2023-01-31T13:09:56;94682.50;;;4.35;67.20
22257;BME280;11297;42.686;23.374;2023-01-31T13:12:26;94689.69;;;4.38;67.17
22257;BME280;11297;42.686;23.374;2023-01-31T13:15:03;94703.69;;;4.56;66.03
22257;BME280;11297;42.686;23.374;2023-01-31T13:17:31;94701.09;;;4.56;65.67
22257;BME280;11297;42.686;23.374;2023-01-31T13:20:02;94690.56;;;4.57;65.22
22257;BME280;11297;42.686;23.374;2023-01-31T13:22:41;94643.03;;;4.22;64.50
22257;BME280;11297;42.686;23.374;2023-01-31T13:28:12;94707.75;;;4.62;64.08
22257;BME280;11297;42.686;23.374;2023-01-31T13:30:49;94707.66;;;4.72;64.40
22257;BME280;11297;42.686;23.374;2023-01-31T13:38:36;94696.75;;;4.56;64.44
22257;BME280;11297;42.686;23.374;2023-01-31T13:41:04;94692.41;;;4.52;65.16
22257;BME280;11297;42.686;23.374;2023-01-31T13:43:32;94703.41;;;4.57;65.04
22257;BME280;11297;42.686;23.374;2023-01-31T13:46:02;94718.88;;;4.52;65.87
22257;BME280;11297;42.686;23.374;2023-01-31T13:51:15;94708.03;;;4.88;65.74
22257;BME280;11297;42.686;23.374;2023-01-31T13:56:27;94705.19;;;4.90;65.04
22257;BME280;11297;42.686;23.374;2023-01-31T13:58:55;94704.88;;;4.96;63.82
22257;BME280;11297;42.686;23.374;2023-01-31T14:01:25;94715.88;;;5.02;62.83
22257;BME280;11297;42.686;23.374;2023-01-31T14:06:56;94705.50;;;4.83;62.63
22257;BME280;11297;42.686;23.374;2023-01-31T14:11:48;94712.16;;;4.89;62.36
22257;BME280;11297;42.686;23.374;2023-01-31T14:14:43;94708.84;;;4.84;60.80
22257;BME280;11297;42.686;23.374;2023-01-31T14:17:10;94721.44;;;4.85;61.53
22257;BME280;11297;42.686;23.374;2023-01-31T14:22:31;94725.94;;;4.70;62.37
22257;BME280;11297;42.686;23.374;2023-01-31T14:27:41;94727.50;;;4.71;61.38
22257;BME280;11297;42.686;23.374;2023-01-31T14:30:16;94721.28;;;4.72;62.03
22257;BME280;11297;42.686;23.374;2023-01-31T14:33:04;94725.69;;;4.72;62.28
22257;BME280;11297;42.686;23.374;2023-01-31T14:54:45;94757.69;;;4.89;61.92
22257;BME280;11297;42.686;23.374;2023-01-31T14:57:18;94756.19;;;4.83;62.34
22257;BME280;11297;42.686;23.374;2023-01-31T15:05:06;94763.63;;;4.51;63.19
22257;BME280;11297;42.686;23.374;2023-01-31T15:07:33;94790.81;;;4.62;62.96
22257;BME280;11297;42.686;23.374;2023-01-31T15:09:59;94774.38;;;4.58;63.08
22257;BME280;11297;42.686;23.374;2023-01-31T15:12:56;94793.88;;;4.64;63.44
22257;BME280;11297;42.686;23.374;2023-01-31T15:15:33;94796.72;;;4.63;62.80
22257;BME280;11297;42.686;23.374;2023-01-31T15:18:10;94793.84;;;4.69;63.22
22257;BME280;11297;42.686;23.374;2023-01-31T15:20:42;94802.09;;;4.66;63.16
22257;BME280;11297;42.686;23.374;2023-01-31T15:23:23;94788.47;;;4.66;63.25
22257;BME280;11297;42.686;23.374;2023-01-31T15:25:49;94778.50;;;4.59;63.04
22257;BME280;11297;42.686;23.374;2023-01-31T15:28:20;94787.69;;;4.70;63.04
22257;BME280;11297;42.686;23.374;2023-01-31T15:30:47;94790.03;;;4.67;63.37
22257;BME280;11297;42.686;23.374;2023-01-31T15:33:21;94795.97;;;4.62;63.54
22257;BME280;11297;42.686;23.374;2023-01-31T15:35:54;94782.84;;;4.16;64.00
22257;BME280;11297;42.686;23.374;2023-01-31T15:38:28;94726.81;;;3.70;64.22
22257;BME280;11297;42.686;23.374;2023-01-31T15:41:25;94810.09;;;4.17;64.50
22257;BME280;11297;42.686;23.374;2023-01-31T15:43:55;94802.94;;;4.09;64.36